createdAt,value
2022-12-23T00:00:23.650Z,996.31
2022-12-23T00:01:23.675Z,996.30
2022-12-23T00:02:23.750Z,996.27
2022-12-23T00:03:23.757Z,996.31
2022-12-23T00:04:23.667Z,996.32
2022-12-23T00:05:23.579Z,996.32
2022-12-23T00:06:23.566Z,996.31
2022-12-23T00:07:23.613Z,996.28
2022-12-23T00:08:23.665Z,996.29
2022-12-23T00:09:23.578Z,996.32
2022-12-23T00:10:23.543Z,996.37
2022-12-23T00:11:23.565Z,996.33
2022-12-23T00:12:23.504Z,996.28
2022-12-23T00:13:23.510Z,996.34
2022-12-23T00:14:23.527Z,996.33
2022-12-23T00:15:23.469Z,996.34
2022-12-23T00:16:23.585Z,996.35
2022-12-23T00:17:23.599Z,996.39
2022-12-23T00:18:23.490Z,996.35
2022-12-23T00:19:23.436Z,996.38
2022-12-23T00:20:23.426Z,996.32
2022-12-23T00:21:23.437Z,996.32
2022-12-23T00:22:23.388Z,996.38
2022-12-23T00:23:23.392Z,996.28
2022-12-23T00:24:23.412Z,996.31
2022-12-23T00:25:23.379Z,996.29
2022-12-23T00:26:23.349Z,996.29
2022-12-23T00:27:23.350Z,996.25
2022-12-23T00:28:23.337Z,996.26
2022-12-23T00:29:23.346Z,996.25
2022-12-23T00:30:23.340Z,996.22
2022-12-23T00:31:23.328Z,996.29
2022-12-23T00:32:23.302Z,996.27
2022-12-23T00:33:23.294Z,996.25
2022-12-23T00:34:23.299Z,996.25
2022-12-23T00:35:23.259Z,996.27
2022-12-23T00:36:23.379Z,996.29
2022-12-23T00:37:23.245Z,996.31
2022-12-23T00:38:23.220Z,996.29
2022-12-23T00:39:23.319Z,996.32
2022-12-23T00:40:23.217Z,996.30
2022-12-23T00:41:23.216Z,996.28
2022-12-23T00:42:23.203Z,996.30
2022-12-23T00:43:23.213Z,996.27
2022-12-23T00:44:23.216Z,996.22
2022-12-23T00:45:23.176Z,996.28
2022-12-23T00:46:23.197Z,996.20
2022-12-23T00:47:23.144Z,996.18
2022-12-23T00:48:23.119Z,996.22
2022-12-23T00:49:23.129Z,996.27
2022-12-23T00:50:23.131Z,996.29
2022-12-23T00:51:23.096Z,996.23
2022-12-23T00:52:23.077Z,996.26
2022-12-23T00:53:23.066Z,996.22
2022-12-23T00:54:23.048Z,996.29
2022-12-23T00:55:23.101Z,996.33
2022-12-23T00:56:23.068Z,996.32
2022-12-23T00:57:23.018Z,996.34
2022-12-23T00:58:23.051Z,996.36
2022-12-23T00:59:23.021Z,996.37
2022-12-23T01:00:23.047Z,996.36
2022-12-23T01:01:23.047Z,996.38
2022-12-23T01:02:23.207Z,996.41
2022-12-23T01:03:23.105Z,996.36
2022-12-23T01:04:22.949Z,996.40
2022-12-23T01:05:22.972Z,996.36
2022-12-23T01:06:22.926Z,996.39
2022-12-23T01:07:22.965Z,996.40
2022-12-23T01:08:22.908Z,996.38
2022-12-23T01:09:22.899Z,996.36
2022-12-23T01:10:22.920Z,996.43
2022-12-23T01:11:22.884Z,996.37
2022-12-23T01:12:22.914Z,996.42
2022-12-23T01:13:22.867Z,996.39
2022-12-23T01:14:22.865Z,996.41
2022-12-23T01:15:22.838Z,996.41
2022-12-23T01:16:22.877Z,996.40
2022-12-23T01:17:22.943Z,996.46
2022-12-23T01:18:22.841Z,996.49
2022-12-23T01:19:22.805Z,996.45
2022-12-23T01:20:22.848Z,996.49
2022-12-23T01:21:22.784Z,996.53
2022-12-23T01:22:22.767Z,996.51
2022-12-23T01:23:22.756Z,996.56
2022-12-23T01:24:22.753Z,996.55
2022-12-23T01:25:22.727Z,996.52
2022-12-23T01:26:22.783Z,996.53
2022-12-23T01:27:22.718Z,996.58
2022-12-23T01:28:22.715Z,996.55
2022-12-23T01:29:22.707Z,996.55
2022-12-23T01:30:22.696Z,996.57
2022-12-23T01:31:22.727Z,996.60
2022-12-23T01:32:22.737Z,996.58
2022-12-23T01:33:22.658Z,996.58
2022-12-23T01:34:22.654Z,996.63
2022-12-23T01:35:22.682Z,996.61
2022-12-23T01:36:22.656Z,996.66
2022-12-23T01:37:22.688Z,996.66
2022-12-23T01:38:22.684Z,996.67
2022-12-23T01:39:22.625Z,996.69
2022-12-23T01:40:22.609Z,996.64
2022-12-23T01:41:22.567Z,996.66
2022-12-23T01:42:22.574Z,996.73
2022-12-23T01:43:22.643Z,996.71
2022-12-23T01:44:22.547Z,996.72
2022-12-23T01:45:22.542Z,996.76
2022-12-23T01:46:22.578Z,996.76
2022-12-23T01:47:22.505Z,996.80
2022-12-23T01:48:22.566Z,996.83
2022-12-23T01:49:22.473Z,996.82
2022-12-23T01:50:22.468Z,996.79
2022-12-23T01:51:22.455Z,996.83
2022-12-23T01:52:22.487Z,996.76
2022-12-23T01:53:22.469Z,996.79
2022-12-23T01:54:22.447Z,996.79
2022-12-23T01:55:22.406Z,996.81
2022-12-23T01:56:22.393Z,996.82
2022-12-23T01:57:22.405Z,996.73
2022-12-23T01:58:22.387Z,996.83
2022-12-23T01:59:22.365Z,996.82
2022-12-23T02:00:22.394Z,996.84
2022-12-23T02:01:22.381Z,996.85
2022-12-23T02:02:22.507Z,996.80
2022-12-23T02:03:22.440Z,996.83
2022-12-23T02:04:22.328Z,996.83
2022-12-23T02:05:22.299Z,996.79
2022-12-23T02:06:22.566Z,996.80
2022-12-23T02:07:22.283Z,996.83
2022-12-23T02:08:22.305Z,996.83
2022-12-23T02:09:22.272Z,996.80
2022-12-23T02:10:22.244Z,996.84
2022-12-23T02:11:22.241Z,996.83
2022-12-23T02:12:22.270Z,996.86
2022-12-23T02:13:22.218Z,996.93
2022-12-23T02:14:22.193Z,996.91
2022-12-23T02:15:22.240Z,996.92
2022-12-23T02:16:22.192Z,996.92
2022-12-23T02:17:22.173Z,996.94
2022-12-23T02:18:23.748Z,996.91
2022-12-23T02:19:22.162Z,996.92
2022-12-23T02:20:22.200Z,996.94
2022-12-23T02:21:22.183Z,996.92
2022-12-23T02:22:22.154Z,996.91
2022-12-23T02:23:22.127Z,996.92
2022-12-23T02:24:22.103Z,996.94
2022-12-23T02:25:22.114Z,996.91
2022-12-23T02:26:22.084Z,996.93
2022-12-23T02:27:22.071Z,996.99
2022-12-23T02:28:22.053Z,996.94
2022-12-23T02:29:22.042Z,996.92
2022-12-23T02:30:22.073Z,996.94
2022-12-23T02:31:22.079Z,996.97
2022-12-23T02:32:22.003Z,996.96
2022-12-23T02:33:22.038Z,996.96
2022-12-23T02:34:21.993Z,997.03
2022-12-23T02:35:21.992Z,997.00
2022-12-23T02:36:22.004Z,996.99
2022-12-23T02:37:22.006Z,997.02
2022-12-23T02:38:21.942Z,997.04
2022-12-23T02:39:21.951Z,996.98
2022-12-23T02:40:21.922Z,997.10
2022-12-23T02:41:21.927Z,997.04
2022-12-23T02:42:21.932Z,997.07
2022-12-23T02:43:21.893Z,997.18
2022-12-23T02:44:21.882Z,997.14
2022-12-23T02:45:21.879Z,997.16
2022-12-23T02:46:22.015Z,997.24
2022-12-23T02:47:21.868Z,997.23
2022-12-23T02:48:21.882Z,997.24
2022-12-23T02:49:21.857Z,997.21
2022-12-23T02:50:21.851Z,997.24
2022-12-23T02:51:21.844Z,997.29
2022-12-23T02:52:21.884Z,997.27
2022-12-23T02:53:21.781Z,997.29
2022-12-23T02:54:21.800Z,997.33
2022-12-23T02:55:21.798Z,997.29
2022-12-23T02:56:21.753Z,997.29
2022-12-23T02:57:21.748Z,997.33
2022-12-23T02:58:21.720Z,997.31
2022-12-23T02:59:21.752Z,997.35
2022-12-23T03:00:21.720Z,997.37
2022-12-23T03:01:22.125Z,997.32
2022-12-23T03:02:21.939Z,997.38
2022-12-23T03:03:21.852Z,997.39
2022-12-23T03:04:21.683Z,997.43
2022-12-23T03:05:21.666Z,997.41
2022-12-23T03:06:21.641Z,997.42
2022-12-23T03:07:21.628Z,997.46
2022-12-23T03:08:21.691Z,997.37
2022-12-23T03:09:21.640Z,997.46
2022-12-23T03:10:21.600Z,997.49
2022-12-23T03:11:21.598Z,997.53
2022-12-23T03:12:21.588Z,997.46
2022-12-23T03:13:21.585Z,997.47
2022-12-23T03:14:21.587Z,997.44
2022-12-23T03:15:21.549Z,997.43
2022-12-23T03:16:21.628Z,997.50
2022-12-23T03:17:21.535Z,997.45
2022-12-23T03:18:21.508Z,997.45
2022-12-23T03:19:21.499Z,997.50
2022-12-23T03:20:21.513Z,997.53
2022-12-23T03:21:21.479Z,997.51
2022-12-23T03:22:21.612Z,997.55
2022-12-23T03:23:21.472Z,997.62
2022-12-23T03:24:21.446Z,997.60
2022-12-23T03:25:21.451Z,997.61
2022-12-23T03:26:21.426Z,997.66
2022-12-23T03:27:21.417Z,997.70
2022-12-23T03:28:21.444Z,997.69
2022-12-23T03:29:21.401Z,997.72
2022-12-23T03:30:21.432Z,997.78
2022-12-23T03:31:21.490Z,997.78
2022-12-23T03:32:21.359Z,997.78
2022-12-23T03:33:21.362Z,997.80
2022-12-23T03:34:21.453Z,997.79
2022-12-23T03:35:21.408Z,997.80
2022-12-23T03:36:21.376Z,997.82
2022-12-23T03:37:21.328Z,997.82
2022-12-23T03:38:21.298Z,997.80
2022-12-23T03:39:21.279Z,997.80
2022-12-23T03:40:21.285Z,997.77
2022-12-23T03:41:21.256Z,997.79
2022-12-23T03:42:21.256Z,997.78
2022-12-23T03:43:21.281Z,997.73
2022-12-23T03:44:21.250Z,997.75
2022-12-23T03:46:22.264Z,997.75
2022-12-23T03:47:21.204Z,997.74
2022-12-23T03:48:21.216Z,997.75
2022-12-23T03:49:21.206Z,997.77
2022-12-23T03:50:21.188Z,997.79
2022-12-23T03:51:21.157Z,997.75
2022-12-23T03:52:21.948Z,997.75
2022-12-23T03:53:21.143Z,997.78
2022-12-23T03:54:21.165Z,997.72
2022-12-23T03:55:21.119Z,997.72
2022-12-23T03:56:21.122Z,997.74
2022-12-23T03:57:21.087Z,997.72
2022-12-23T03:58:21.116Z,997.72
2022-12-23T03:59:21.127Z,997.74
2022-12-23T04:00:21.068Z,997.77
2022-12-23T04:01:21.110Z,997.79
2022-12-23T04:02:21.215Z,997.77
2022-12-23T04:03:21.216Z,997.71
2022-12-23T04:04:21.130Z,997.75
2022-12-23T04:05:21.009Z,997.72
2022-12-23T04:06:21.002Z,997.74
2022-12-23T04:07:21.018Z,997.68
2022-12-23T04:08:21.091Z,997.71
2022-12-23T04:09:22.417Z,997.71
2022-12-23T04:10:20.968Z,997.72
2022-12-23T04:11:20.955Z,997.68
2022-12-23T04:12:20.937Z,997.66
2022-12-23T04:13:21.231Z,997.75
2022-12-23T04:14:20.973Z,997.71
2022-12-23T04:15:20.914Z,997.70
2022-12-23T04:16:21.005Z,997.77
2022-12-23T04:17:20.907Z,997.80
2022-12-23T04:18:20.871Z,997.81
2022-12-23T04:19:20.893Z,997.84
2022-12-23T04:20:20.906Z,997.79
2022-12-23T04:21:20.887Z,997.78
2022-12-23T04:22:20.833Z,997.77
2022-12-23T04:23:20.837Z,997.78
2022-12-23T04:24:20.987Z,997.83
2022-12-23T04:25:20.804Z,997.79
2022-12-23T04:26:20.825Z,997.81
2022-12-23T04:27:20.831Z,997.84
2022-12-23T04:28:20.759Z,997.84
2022-12-23T04:29:20.784Z,997.85
2022-12-23T04:30:20.795Z,997.91
2022-12-23T04:31:20.796Z,997.85
2022-12-23T04:32:20.767Z,997.90
2022-12-23T04:33:30.939Z,997.87
2022-12-23T04:34:20.710Z,997.89
2022-12-23T04:35:20.729Z,997.88
2022-12-23T04:36:20.679Z,997.88
2022-12-23T04:37:20.667Z,997.91
2022-12-23T04:38:20.706Z,997.88
2022-12-23T04:39:20.669Z,997.84
2022-12-23T04:40:20.628Z,997.82
2022-12-23T04:41:20.650Z,997.85
2022-12-23T04:42:20.626Z,997.80
2022-12-23T04:43:20.684Z,997.83
2022-12-23T04:44:20.598Z,997.88
2022-12-23T04:45:20.580Z,997.90
2022-12-23T04:46:20.678Z,997.86
2022-12-23T04:47:20.562Z,997.88
2022-12-23T04:48:20.559Z,997.90
2022-12-23T04:49:20.546Z,997.90
2022-12-23T04:50:20.568Z,997.94
2022-12-23T04:51:20.537Z,997.89
2022-12-23T04:52:20.530Z,997.95
2022-12-23T04:53:20.504Z,997.97
2022-12-23T04:54:20.510Z,997.96
2022-12-23T04:55:20.485Z,997.95
2022-12-23T04:56:20.649Z,997.98
2022-12-23T04:57:20.459Z,997.98
2022-12-23T04:58:20.446Z,998.02
2022-12-23T04:59:20.478Z,998.01
2022-12-23T05:00:20.509Z,998.09
2022-12-23T05:01:20.614Z,998.07
2022-12-23T05:02:20.469Z,998.04
2022-12-23T05:03:20.523Z,998.04
2022-12-23T05:04:20.383Z,998.03
2022-12-23T05:05:20.377Z,998.06
2022-12-23T05:06:20.436Z,998.02
2022-12-23T05:07:20.372Z,998.03
2022-12-23T05:08:20.346Z,998.00
2022-12-23T05:09:20.341Z,998.02
2022-12-23T05:10:20.316Z,997.97
2022-12-23T05:11:20.321Z,997.95
2022-12-23T05:12:20.407Z,998.00
2022-12-23T05:13:20.322Z,998.04
2022-12-23T05:14:20.272Z,998.05
2022-12-23T05:15:20.266Z,998.04
2022-12-23T05:16:20.293Z,998.02
2022-12-23T05:17:20.237Z,998.05
2022-12-23T05:18:20.276Z,998.03
2022-12-23T05:19:20.236Z,998.05
2022-12-23T05:20:20.216Z,998.02
2022-12-23T05:21:20.216Z,998.05
2022-12-23T05:22:20.181Z,998.09
2022-12-23T05:23:20.199Z,998.06
2022-12-23T05:24:20.156Z,998.08
2022-12-23T05:25:20.180Z,998.04
2022-12-23T05:26:20.228Z,998.05
2022-12-23T05:27:20.128Z,998.05
2022-12-23T05:28:20.121Z,998.07
2022-12-23T05:29:20.107Z,998.00
2022-12-23T05:30:20.098Z,998.00
2022-12-23T05:31:20.196Z,998.01
2022-12-23T05:32:20.150Z,998.01
2022-12-23T05:33:20.098Z,998.02
2022-12-23T05:34:20.188Z,998.00
2022-12-23T05:35:20.044Z,997.99
2022-12-23T05:36:20.029Z,997.95
2022-12-23T05:37:20.087Z,997.98
2022-12-23T05:38:20.012Z,997.97
2022-12-23T05:39:19.996Z,997.99
2022-12-23T05:40:23.863Z,998.02
2022-12-23T05:41:21.015Z,998.03
2022-12-23T05:42:19.973Z,998.09
2022-12-23T05:43:20.014Z,998.06
2022-12-23T05:44:19.958Z,998.05
2022-12-23T05:45:19.953Z,998.03
2022-12-23T05:46:25.940Z,998.03
2022-12-23T05:47:20.926Z,998.02
2022-12-23T05:48:19.904Z,998.00
2022-12-23T05:49:19.912Z,998.02
2022-12-23T05:50:19.874Z,998.08
2022-12-23T05:51:19.894Z,998.09
2022-12-23T05:52:19.856Z,998.02
2022-12-23T05:53:19.863Z,998.06
2022-12-23T05:54:19.874Z,998.09
2022-12-23T05:55:19.870Z,998.09
2022-12-23T05:56:19.811Z,998.10
2022-12-23T05:57:19.841Z,998.11
2022-12-23T05:58:19.829Z,998.17
2022-12-23T05:59:19.774Z,998.22
2022-12-23T06:00:19.772Z,998.24
2022-12-23T06:01:19.781Z,998.24
2022-12-23T06:02:19.885Z,998.25
2022-12-23T06:03:19.960Z,998.30
2022-12-23T06:04:19.800Z,998.33
2022-12-23T06:05:19.770Z,998.32
2022-12-23T06:06:19.714Z,998.36
2022-12-23T06:07:19.707Z,998.36
2022-12-23T06:08:19.718Z,998.40
2022-12-23T06:09:19.696Z,998.50
2022-12-23T06:10:19.667Z,998.45
2022-12-23T06:11:19.694Z,998.48
2022-12-23T06:12:19.671Z,998.49
2022-12-23T06:13:19.651Z,998.47
2022-12-23T06:14:23.912Z,998.47
2022-12-23T06:15:20.644Z,998.47
2022-12-23T06:16:19.670Z,998.55
2022-12-23T06:17:19.593Z,998.59
2022-12-23T06:18:19.605Z,998.66
2022-12-23T06:19:19.578Z,998.64
2022-12-23T06:20:20.940Z,998.62
2022-12-23T06:21:19.571Z,998.63
2022-12-23T06:22:19.572Z,998.61
2022-12-23T06:23:19.559Z,998.60
2022-12-23T06:24:19.518Z,998.62
2022-12-23T06:25:19.503Z,998.61
2022-12-23T06:26:19.492Z,998.63
2022-12-23T06:27:19.506Z,998.61
2022-12-23T06:28:19.523Z,998.57
2022-12-23T06:29:19.467Z,998.58
2022-12-23T06:30:19.452Z,998.54
2022-12-23T06:31:19.515Z,998.54
2022-12-23T06:32:19.586Z,998.55
2022-12-23T06:33:19.413Z,998.58
2022-12-23T06:34:19.410Z,998.58
2022-12-23T06:35:19.387Z,998.53
2022-12-23T06:36:19.410Z,998.53
2022-12-23T06:37:19.413Z,998.46
2022-12-23T06:38:19.386Z,998.49
2022-12-23T06:39:19.377Z,998.49
2022-12-23T06:40:19.352Z,998.51
2022-12-23T06:41:19.385Z,998.49
2022-12-23T06:42:19.336Z,998.44
2022-12-23T06:43:19.352Z,998.47
2022-12-23T06:44:19.301Z,998.49
2022-12-23T06:45:19.296Z,998.49
2022-12-23T06:46:19.355Z,998.48
2022-12-23T06:47:19.263Z,998.47
2022-12-23T06:48:19.295Z,998.45
2022-12-23T06:49:19.289Z,998.46
2022-12-23T06:50:19.254Z,998.50
2022-12-23T06:51:19.252Z,998.50
2022-12-23T06:52:19.268Z,998.47
2022-12-23T06:53:19.205Z,998.44
2022-12-23T06:54:19.223Z,998.45
2022-12-23T06:55:19.183Z,998.43
2022-12-23T06:56:19.185Z,998.42
2022-12-23T06:57:19.191Z,998.46
2022-12-23T06:58:19.149Z,998.44
2022-12-23T06:59:19.289Z,998.44
2022-12-23T07:00:19.148Z,998.39
2022-12-23T07:01:19.238Z,998.38
2022-12-23T07:02:19.238Z,998.36
2022-12-23T07:03:19.136Z,998.37
2022-12-23T07:04:19.110Z,998.39
2022-12-23T07:05:19.081Z,998.44
2022-12-23T07:06:19.142Z,998.42
2022-12-23T07:07:19.089Z,998.47
2022-12-23T07:08:19.069Z,998.48
2022-12-23T07:09:19.035Z,998.47
2022-12-23T07:10:19.028Z,998.46
2022-12-23T07:11:19.053Z,998.48
2022-12-23T07:12:19.002Z,998.48
2022-12-23T07:13:18.993Z,998.52
2022-12-23T07:14:18.980Z,998.53
2022-12-23T07:15:22.264Z,998.58
2022-12-23T07:16:19.024Z,998.61
2022-12-23T07:17:18.988Z,998.64
2022-12-23T07:18:18.953Z,998.66
2022-12-23T07:19:18.925Z,998.73
2022-12-23T07:20:18.960Z,998.68
2022-12-23T07:21:28.318Z,998.78
2022-12-23T07:22:19.920Z,998.74
2022-12-23T07:23:18.921Z,998.79
2022-12-23T07:24:18.911Z,998.82
2022-12-23T07:25:18.885Z,998.87
2022-12-23T07:26:18.988Z,998.87
2022-12-23T07:27:18.878Z,998.93
2022-12-23T07:28:18.859Z,998.92
2022-12-23T07:29:18.819Z,998.93
2022-12-23T07:30:18.846Z,998.96
2022-12-23T07:31:18.816Z,998.98
2022-12-23T07:32:18.845Z,999.03
2022-12-23T07:33:18.769Z,999.06
2022-12-23T07:34:18.767Z,999.10
2022-12-23T07:35:18.770Z,999.11
2022-12-23T07:36:18.769Z,999.15
2022-12-23T07:37:18.750Z,999.29
2022-12-23T07:38:18.760Z,999.22
2022-12-23T07:39:18.705Z,999.21
2022-12-23T07:40:18.742Z,999.18
2022-12-23T07:41:18.715Z,999.19
2022-12-23T07:42:44.304Z,999.24
2022-12-23T07:43:19.736Z,999.23
2022-12-23T07:44:18.664Z,999.22
2022-12-23T07:45:18.648Z,999.27
2022-12-23T07:46:18.696Z,999.23
2022-12-23T07:47:18.651Z,999.28
2022-12-23T07:48:18.632Z,999.26
2022-12-23T07:49:19.261Z,999.33
2022-12-23T07:50:18.587Z,999.31
2022-12-23T07:51:18.602Z,999.32
2022-12-23T07:52:18.573Z,999.29
2022-12-23T07:53:18.610Z,999.29
2022-12-23T07:54:18.575Z,999.25
2022-12-23T07:55:18.566Z,999.21
2022-12-23T07:56:18.535Z,999.23
2022-12-23T07:57:18.591Z,999.23
2022-12-23T07:58:18.505Z,999.22
2022-12-23T07:59:18.516Z,999.28
2022-12-23T08:00:18.499Z,999.25
2022-12-23T08:01:18.583Z,999.27
2022-12-23T08:02:18.638Z,999.29
2022-12-23T08:03:18.681Z,999.26
2022-12-23T08:04:18.625Z,999.32
2022-12-23T08:05:18.545Z,999.28
2022-12-23T08:06:18.428Z,999.30
2022-12-23T08:07:18.477Z,999.23
2022-12-23T08:08:18.417Z,999.27
2022-12-23T08:09:18.416Z,999.21
2022-12-23T08:10:18.368Z,999.16
2022-12-23T08:11:18.486Z,999.13
2022-12-23T08:12:18.380Z,999.19
2022-12-23T08:13:18.349Z,999.16
2022-12-23T08:14:18.324Z,999.19
2022-12-23T08:15:18.354Z,999.16
2022-12-23T08:16:18.374Z,999.15
2022-12-23T08:17:18.456Z,999.14
2022-12-23T08:18:18.289Z,999.18
2022-12-23T08:19:18.286Z,999.21
2022-12-23T08:20:18.328Z,999.17
2022-12-23T08:21:18.260Z,999.13
2022-12-23T08:22:18.288Z,999.14
2022-12-23T08:23:24.439Z,999.14
2022-12-23T08:24:19.225Z,999.15
2022-12-23T08:25:18.263Z,999.16
2022-12-23T08:26:18.207Z,999.17
2022-12-23T08:27:18.205Z,999.19
2022-12-23T08:28:18.235Z,999.21
2022-12-23T08:29:18.170Z,999.15
2022-12-23T08:30:18.164Z,999.13
2022-12-23T08:31:18.304Z,999.19
2022-12-23T08:32:18.136Z,999.20
2022-12-23T08:33:18.136Z,999.18
2022-12-23T08:34:18.134Z,999.20
2022-12-23T08:35:18.107Z,999.18
2022-12-23T08:36:22.671Z,999.19
2022-12-23T08:37:19.164Z,999.17
2022-12-23T08:38:18.067Z,999.13
2022-12-23T08:39:18.088Z,999.11
2022-12-23T08:40:21.356Z,999.07
2022-12-23T08:41:18.033Z,999.09
2022-12-23T08:42:18.046Z,999.08
2022-12-23T08:43:18.027Z,999.10
2022-12-23T08:44:18.024Z,999.10
2022-12-23T08:45:18.001Z,999.13
2022-12-23T08:46:18.014Z,999.11
2022-12-23T08:47:18.014Z,999.10
2022-12-23T08:48:17.974Z,999.09
2022-12-23T08:49:17.988Z,999.12
2022-12-23T08:50:17.942Z,999.09
2022-12-23T08:51:17.956Z,999.09
2022-12-23T08:52:17.929Z,999.10
2022-12-23T08:53:17.974Z,999.11
2022-12-23T08:54:17.906Z,999.07
2022-12-23T08:55:17.894Z,999.10
2022-12-23T08:56:17.918Z,999.19
2022-12-23T08:57:17.905Z,999.12
2022-12-23T08:58:17.863Z,999.10
2022-12-23T08:59:19.514Z,999.13
2022-12-23T09:00:17.842Z,999.20
2022-12-23T09:01:17.835Z,999.24
2022-12-23T09:02:17.927Z,999.25
2022-12-23T09:03:17.881Z,999.22
2022-12-23T09:04:17.804Z,999.22
2022-12-23T09:05:17.784Z,999.20
2022-12-23T09:06:21.869Z,999.21
2022-12-23T09:07:18.793Z,999.16
2022-12-23T09:08:17.741Z,999.16
2022-12-23T09:09:17.752Z,999.14
2022-12-23T09:10:17.768Z,999.15
2022-12-23T09:11:17.723Z,999.19
2022-12-23T09:12:17.710Z,999.19
2022-12-23T09:13:26.355Z,999.18
2022-12-23T09:14:18.733Z,999.13
2022-12-23T09:15:17.702Z,999.07
2022-12-23T09:16:17.794Z,999.02
2022-12-23T09:17:17.675Z,999.04
2022-12-23T09:18:17.666Z,999.08
2022-12-23T09:19:17.632Z,999.06
2022-12-23T09:20:17.681Z,999.06
2022-12-23T09:21:17.643Z,999.05
2022-12-23T09:22:17.608Z,999.04
2022-12-23T09:23:17.630Z,999.04
2022-12-23T09:24:17.573Z,999.04
2022-12-23T09:25:17.573Z,999.05
2022-12-23T09:26:17.552Z,999.02
2022-12-23T09:27:17.581Z,999.04
2022-12-23T09:28:17.529Z,999.10
2022-12-23T09:29:17.591Z,999.13
2022-12-23T09:30:17.526Z,999.08
2022-12-23T09:31:17.573Z,999.07
2022-12-23T09:32:17.492Z,999.08
2022-12-23T09:33:17.497Z,999.06
2022-12-23T09:34:17.473Z,999.07
2022-12-23T09:35:17.539Z,999.05
2022-12-23T09:36:17.462Z,999.11
2022-12-23T09:37:17.500Z,999.04
2022-12-23T09:38:17.437Z,999.08
2022-12-23T09:39:17.421Z,999.03
2022-12-23T09:40:17.416Z,999.11
2022-12-23T09:41:17.426Z,999.06
2022-12-23T09:42:17.396Z,999.09
2022-12-23T09:43:17.384Z,999.06
2022-12-23T09:44:17.376Z,999.05
2022-12-23T09:45:17.441Z,999.05
2022-12-23T09:46:17.406Z,999.04
2022-12-23T09:47:17.381Z,999.03
2022-12-23T09:48:17.332Z,998.99
2022-12-23T09:49:17.313Z,998.93
2022-12-23T09:50:17.313Z,998.92
2022-12-23T09:51:17.514Z,998.95
2022-12-23T09:52:17.290Z,998.91
2022-12-23T09:53:17.277Z,998.87
2022-12-23T09:54:17.746Z,998.86
2022-12-23T09:55:17.242Z,998.77
2022-12-23T09:56:17.259Z,998.78
2022-12-23T09:57:18.992Z,998.72
2022-12-23T09:58:19.149Z,998.73
2022-12-23T09:59:17.204Z,998.73
2022-12-23T10:00:17.242Z,998.72
2022-12-23T10:01:17.286Z,998.76
2022-12-23T10:02:20.472Z,998.72
2022-12-23T10:03:17.515Z,998.76
2022-12-23T10:04:17.224Z,998.83
2022-12-23T10:05:17.154Z,998.82
2022-12-23T10:06:17.124Z,998.85
2022-12-23T10:07:17.123Z,998.87
2022-12-23T10:08:17.529Z,998.87
2022-12-23T10:09:17.107Z,998.86
2022-12-23T10:10:17.098Z,998.87
2022-12-23T10:11:17.096Z,998.87
2022-12-23T10:12:19.703Z,998.84
2022-12-23T10:13:18.095Z,998.81
2022-12-23T10:14:17.052Z,998.80
2022-12-23T10:15:17.081Z,998.77
2022-12-23T10:16:17.089Z,998.79
2022-12-23T10:17:17.059Z,998.79
2022-12-23T10:18:16.998Z,998.77
2022-12-23T10:19:17.003Z,998.79
2022-12-23T10:20:16.990Z,998.80
2022-12-23T10:21:16.977Z,998.78
2022-12-23T10:22:17.174Z,998.81
2022-12-23T10:23:16.992Z,998.72
2022-12-23T10:24:16.932Z,998.76
2022-12-23T10:25:16.955Z,998.73
2022-12-23T10:26:16.923Z,998.72
2022-12-23T10:27:16.947Z,998.71
2022-12-23T10:28:16.925Z,998.70
2022-12-23T10:29:19.443Z,998.63
2022-12-23T10:30:42.426Z,998.68
2022-12-23T10:31:39.315Z,998.64
2022-12-23T10:32:17.917Z,998.67
2022-12-23T10:33:16.856Z,998.56
2022-12-23T10:35:28.935Z,998.45
2022-12-23T10:36:28.990Z,998.37
2022-12-23T10:37:28.900Z,998.34
2022-12-23T10:38:28.885Z,998.27
2022-12-23T10:39:28.876Z,998.26
2022-12-23T10:40:28.871Z,998.24
2022-12-23T10:41:28.886Z,998.24
2022-12-23T10:42:28.844Z,998.20
2022-12-23T10:43:28.849Z,998.18
2022-12-23T10:44:28.837Z,998.16
2022-12-23T10:45:28.863Z,998.12
2022-12-23T10:46:28.850Z,998.13
2022-12-23T10:47:28.799Z,998.06
2022-12-23T10:48:28.799Z,998.02
2022-12-23T10:49:28.764Z,998.04
2022-12-23T10:50:28.950Z,997.96
2022-12-23T10:51:28.785Z,997.93
2022-12-23T10:52:28.749Z,997.96
2022-12-23T10:53:31.376Z,997.96
2022-12-23T10:54:28.767Z,997.93
2022-12-23T10:55:40.898Z,997.95
2022-12-23T10:56:28.686Z,997.94
2022-12-23T10:57:28.687Z,997.98
2022-12-23T10:58:28.722Z,997.99
2022-12-23T10:59:28.665Z,998.02
2022-12-23T11:00:32.467Z,998.05
2022-12-23T11:01:28.690Z,998.06
2022-12-23T11:02:28.830Z,998.07
2022-12-23T11:03:28.810Z,998.04
2022-12-23T11:04:28.626Z,998.02
2022-12-23T11:05:28.628Z,998.01
2022-12-23T11:06:34.863Z,998.01
2022-12-23T11:07:46.224Z,998.05
2022-12-23T11:08:29.850Z,998.00
2022-12-23T11:09:28.555Z,998.05
2022-12-23T11:10:28.553Z,998.04
2022-12-23T11:11:28.528Z,997.91
2022-12-23T11:12:28.527Z,997.89
2022-12-23T11:13:28.509Z,997.83
2022-12-23T11:14:28.588Z,997.77
2022-12-23T11:15:28.494Z,997.71
2022-12-23T11:16:28.567Z,997.70
2022-12-23T11:17:28.486Z,997.77
2022-12-23T11:18:28.773Z,997.71
2022-12-23T11:19:28.455Z,997.71
2022-12-23T11:20:28.432Z,997.71
2022-12-23T11:21:28.445Z,997.66
2022-12-23T11:22:28.422Z,997.72
2022-12-23T11:23:28.490Z,997.67
2022-12-23T11:24:28.452Z,997.64
2022-12-23T11:25:28.407Z,997.61
2022-12-23T11:26:28.383Z,997.57
2022-12-23T11:27:28.366Z,997.52
2022-12-23T11:28:28.442Z,997.53
2022-12-23T11:29:28.403Z,997.52
2022-12-23T11:30:28.338Z,997.53
2022-12-23T11:31:28.392Z,997.44
2022-12-23T11:32:28.306Z,997.46
2022-12-23T11:33:28.367Z,997.45
2022-12-23T11:34:32.441Z,997.46
2022-12-23T11:35:28.368Z,997.45
2022-12-23T11:36:28.254Z,997.53
2022-12-23T11:37:28.260Z,997.52
2022-12-23T11:38:28.232Z,997.55
2022-12-23T11:39:28.242Z,997.57
2022-12-23T11:40:28.236Z,997.58
2022-12-23T11:41:28.266Z,997.55
2022-12-23T11:42:28.225Z,997.50
2022-12-23T11:43:28.227Z,997.53
2022-12-23T11:44:28.189Z,997.44
2022-12-23T11:45:28.229Z,997.44
2022-12-23T11:46:28.224Z,997.41
2022-12-23T11:47:28.284Z,997.41
2022-12-23T11:48:28.137Z,997.39
2022-12-23T11:49:28.132Z,997.35
2022-12-23T11:50:28.140Z,997.41
2022-12-23T11:51:28.161Z,997.37
2022-12-23T11:52:28.737Z,997.40
2022-12-23T11:53:28.075Z,997.33
2022-12-23T11:54:28.072Z,997.36
2022-12-23T11:55:28.049Z,997.31
2022-12-23T11:56:28.071Z,997.30
2022-12-23T11:57:28.073Z,997.24
2022-12-23T11:58:28.040Z,997.18
2022-12-23T11:59:28.038Z,997.11
2022-12-23T12:00:28.012Z,997.05
2022-12-23T12:01:28.023Z,997.05
2022-12-23T12:02:32.662Z,997.00
2022-12-23T12:03:28.093Z,996.92
2022-12-23T12:04:27.954Z,996.92
2022-12-23T12:05:27.962Z,996.89
2022-12-23T12:06:28.025Z,996.86
2022-12-23T12:07:27.919Z,996.85
2022-12-23T12:08:27.961Z,996.86
2022-12-23T12:09:27.919Z,996.87
2022-12-23T12:10:27.918Z,996.87
2022-12-23T12:11:27.935Z,996.88
2022-12-23T12:12:27.882Z,996.86
2022-12-23T12:13:27.881Z,996.81
2022-12-23T12:14:27.902Z,996.80
2022-12-23T12:15:27.831Z,996.77
2022-12-23T12:16:27.884Z,996.75
2022-12-23T12:17:27.813Z,996.79
2022-12-23T12:18:27.824Z,996.70
2022-12-23T12:19:27.802Z,996.68
2022-12-23T12:20:27.836Z,996.64
2022-12-23T12:21:27.811Z,996.61
2022-12-23T12:22:27.780Z,996.59
2022-12-23T12:23:27.762Z,996.52
2022-12-23T12:24:27.774Z,996.58
2022-12-23T12:25:27.779Z,996.58
2022-12-23T12:26:27.745Z,996.58
2022-12-23T12:27:27.780Z,996.57
2022-12-23T12:28:27.774Z,996.53
2022-12-23T12:29:27.752Z,996.51
2022-12-23T12:30:27.751Z,996.44